<?xml version="1.0" encoding="UTF-8"?>
<gpx xmlns="http://www.topografix.com/GPX/1/1" xmlns:xsi="http://www.w3.org/2001/XMLSchema-instance" version="1.1" xsi:schemaLocation="http://www.topografix.com/GPX/1/1 http://www.topografix.com/GPX/1/1/gpx.xsd">
  <metadata>
    <name>Grantham Spring Triathlon</name>
  </metadata>
  <trk>
    <name>Grantham Spring Triathlon</name>
    <trkseg>
      <trkpt lat="52.906632" lon="-0.66607">
        <ele>82.3821</ele>
        <time>2020-04-05T08:53:00.000Z</time>
      </trkpt>
      <trkpt lat="52.906639" lon="-0.666083">
        <ele>82.382099</ele>
        <time>2020-04-05T08:53:00.000Z</time>
      </trkpt>
      <trkpt lat="52.90671" lon="-0.666221">
        <ele>82.3821</ele>
        <time>2020-04-05T08:53:01.000Z</time>
      </trkpt>
      <trkpt lat="52.906749" lon="-0.666222">
        <ele>82.38211</ele>
        <time>2020-04-05T08:53:01.000Z</time>
      </trkpt>
      <trkpt lat="52.906825" lon="-0.666432">
        <ele>82.382107</ele>
        <time>2020-04-05T08:53:03.000Z</time>
      </trkpt>
      <trkpt lat="52.906807" lon="-0.666686">
        <ele>82.382111</ele>
        <time>2020-04-05T08:53:05.000Z</time>
      </trkpt>
      <trkpt lat="52.906789" lon="-0.667274">
        <ele>82.382111</ele>
        <time>2020-04-05T08:53:09.000Z</time>
      </trkpt>
      <trkpt lat="52.906782" lon="-0.667804">
        <ele>82.442559</ele>
        <time>2020-04-05T08:53:13.000Z</time>
      </trkpt>
      <trkpt lat="52.906771" lon="-0.668043">
        <ele>82.480541</ele>
        <time>2020-04-05T08:53:15.000Z</time>
      </trkpt>
      <trkpt lat="52.906766" lon="-0.668209">
        <ele>82.505363</ele>
        <time>2020-04-05T08:53:16.000Z</time>
      </trkpt>
      <trkpt lat="52.906747" lon="-0.668539">
        <ele>82.557913</ele>
        <time>2020-04-05T08:53:18.000Z</time>
      </trkpt>
      <trkpt lat="52.906845" lon="-0.668579">
        <ele>82.58393</ele>
        <time>2020-04-05T08:53:19.000Z</time>
      </trkpt>
      <trkpt lat="52.907001" lon="-0.668618">
        <ele>82.624018</ele>
        <time>2020-04-05T08:53:21.000Z</time>
      </trkpt>
      <trkpt lat="52.907142" lon="-0.668626">
        <ele>82.664627</ele>
        <time>2020-04-05T08:53:23.000Z</time>
      </trkpt>
      <trkpt lat="52.907695" lon="-0.66865">
        <ele>82.805866</ele>
        <time>2020-04-05T08:53:29.000Z</time>
      </trkpt>
      <trkpt lat="52.907728" lon="-0.668642">
        <ele>82.816621</ele>
        <time>2020-04-05T08:53:29.000Z</time>
      </trkpt>
      <trkpt lat="52.908611" lon="-0.668711">
        <ele>83.212307</ele>
        <time>2020-04-05T08:53:39.000Z</time>
      </trkpt>
      <trkpt lat="52.9096" lon="-0.668779">
        <ele>83.689561</ele>
        <time>2020-04-05T08:53:50.000Z</time>
      </trkpt>
      <trkpt lat="52.909733" lon="-0.668774">
        <ele>83.751862</ele>
        <time>2020-04-05T08:53:51.000Z</time>
      </trkpt>
      <trkpt lat="52.909745" lon="-0.669884">
        <ele>84.065409</ele>
        <time>2020-04-05T08:53:58.000Z</time>
      </trkpt>
      <trkpt lat="52.909747" lon="-0.670159">
        <ele>84.140023</ele>
        <time>2020-04-05T08:54:00.000Z</time>
      </trkpt>
      <trkpt lat="52.909737" lon="-0.671447">
        <ele>84.508654</ele>
        <time>2020-04-05T08:54:09.000Z</time>
      </trkpt>
      <trkpt lat="52.909752" lon="-0.672544">
        <ele>84.730807</ele>
        <time>2020-04-05T08:54:16.000Z</time>
      </trkpt>
      <trkpt lat="52.909756" lon="-0.673367">
        <ele>84.88403</ele>
        <time>2020-04-05T08:54:22.000Z</time>
      </trkpt>
      <trkpt lat="52.909762" lon="-0.673678">
        <ele>84.940918</ele>
        <time>2020-04-05T08:54:24.000Z</time>
      </trkpt>
      <trkpt lat="52.90977" lon="-0.674956">
        <ele>85.192349</ele>
        <time>2020-04-05T08:54:33.000Z</time>
      </trkpt>
      <trkpt lat="52.909764" lon="-0.67506">
        <ele>85.216398</ele>
        <time>2020-04-05T08:54:34.000Z</time>
      </trkpt>
      <trkpt lat="52.909758" lon="-0.675301">
        <ele>85.270783</ele>
        <time>2020-04-05T08:54:36.000Z</time>
      </trkpt>
      <trkpt lat="52.909762" lon="-0.676372">
        <ele>85.511897</ele>
        <time>2020-04-05T08:54:43.000Z</time>
      </trkpt>
      <trkpt lat="52.909754" lon="-0.676995">
        <ele>85.649419</ele>
        <time>2020-04-05T08:54:47.000Z</time>
      </trkpt>
      <trkpt lat="52.90975" lon="-0.67726">
        <ele>85.710992</ele>
        <time>2020-04-05T08:54:49.000Z</time>
      </trkpt>
      <trkpt lat="52.909755" lon="-0.677857">
        <ele>85.899651</ele>
        <time>2020-04-05T08:54:53.000Z</time>
      </trkpt>
      <trkpt lat="52.909772" lon="-0.679031">
        <ele>86.436561</ele>
        <time>2020-04-05T08:55:01.000Z</time>
      </trkpt>
      <trkpt lat="52.909758" lon="-0.6812">
        <ele>87.522577</ele>
        <time>2020-04-05T08:55:16.000Z</time>
      </trkpt>
      <trkpt lat="52.90979" lon="-0.682228">
        <ele>88.138563</ele>
        <time>2020-04-05T08:55:23.000Z</time>
      </trkpt>
      <trkpt lat="52.910055" lon="-0.685183">
        <ele>89.986715</ele>
        <time>2020-04-05T08:55:43.000Z</time>
      </trkpt>
      <trkpt lat="52.910151" lon="-0.686185">
        <ele>90.635459</ele>
        <time>2020-04-05T08:55:50.000Z</time>
      </trkpt>
      <trkpt lat="52.910178" lon="-0.686373">
        <ele>90.759238</ele>
        <time>2020-04-05T08:55:51.000Z</time>
      </trkpt>
      <trkpt lat="52.910282" lon="-0.687536">
        <ele>90.658875</ele>
        <time>2020-04-05T08:55:59.000Z</time>
      </trkpt>
      <trkpt lat="52.910407" lon="-0.687941">
        <ele>90.578632</ele>
        <time>2020-04-05T08:56:02.000Z</time>
      </trkpt>
      <trkpt lat="52.910453" lon="-0.687991">
        <ele>90.564458</ele>
        <time>2020-04-05T08:56:03.000Z</time>
      </trkpt>
      <trkpt lat="52.910334" lon="-0.688157">
        <ele>90.521748</ele>
        <time>2020-04-05T08:56:05.000Z</time>
      </trkpt>
      <trkpt lat="52.910257" lon="-0.688209">
        <ele>90.497332</ele>
        <time>2020-04-05T08:56:06.000Z</time>
      </trkpt>
      <trkpt lat="52.909591" lon="-0.68849">
        <ele>90.177999</ele>
        <time>2020-04-05T08:56:14.000Z</time>
      </trkpt>
      <trkpt lat="52.909077" lon="-0.688717">
        <ele>89.295993</ele>
        <time>2020-04-05T08:56:20.000Z</time>
      </trkpt>
      <trkpt lat="52.908677" lon="-0.688897">
        <ele>88.601763</ele>
        <time>2020-04-05T08:56:25.000Z</time>
      </trkpt>
      <trkpt lat="52.907748" lon="-0.689304">
        <ele>87.241783</ele>
        <time>2020-04-05T08:56:36.000Z</time>
      </trkpt>
      <trkpt lat="52.907245" lon="-0.689525">
        <ele>86.99849</ele>
        <time>2020-04-05T08:56:42.000Z</time>
      </trkpt>
      <trkpt lat="52.906917" lon="-0.689759">
        <ele>86.831732</ele>
        <time>2020-04-05T08:56:46.000Z</time>
      </trkpt>
      <trkpt lat="52.905956" lon="-0.690683">
        <ele>87.199427</ele>
        <time>2020-04-05T08:56:58.000Z</time>
      </trkpt>
      <trkpt lat="52.905238" lon="-0.691262">
        <ele>88.667633</ele>
        <time>2020-04-05T08:57:07.000Z</time>
      </trkpt>
      <trkpt lat="52.903328" lon="-0.692652">
        <ele>93.966624</ele>
        <time>2020-04-05T08:57:30.000Z</time>
      </trkpt>
      <trkpt lat="52.902638" lon="-0.693147">
        <ele>95.303058</ele>
        <time>2020-04-05T08:57:38.000Z</time>
      </trkpt>
      <trkpt lat="52.90215" lon="-0.693465">
        <ele>95.78475</ele>
        <time>2020-04-05T08:57:44.000Z</time>
      </trkpt>
      <trkpt lat="52.901806" lon="-0.693652">
        <ele>96.127643</ele>
        <time>2020-04-05T08:57:48.000Z</time>
      </trkpt>
      <trkpt lat="52.901785" lon="-0.693649">
        <ele>96.148763</ele>
        <time>2020-04-05T08:57:48.000Z</time>
      </trkpt>
      <trkpt lat="52.900875" lon="-0.694008">
        <ele>94.82443</ele>
        <time>2020-04-05T08:57:58.000Z</time>
      </trkpt>
      <trkpt lat="52.899545" lon="-0.694323">
        <ele>89.673244</ele>
        <time>2020-04-05T08:58:13.000Z</time>
      </trkpt>
      <trkpt lat="52.898838" lon="-0.694424">
        <ele>86.087747</ele>
        <time>2020-04-05T08:58:21.000Z</time>
      </trkpt>
      <trkpt lat="52.89788" lon="-0.694543">
        <ele>81.197021</ele>
        <time>2020-04-05T08:58:32.000Z</time>
      </trkpt>
      <trkpt lat="52.89512" lon="-0.694769">
        <ele>72.859726</ele>
        <time>2020-04-05T08:59:03.000Z</time>
      </trkpt>
      <trkpt lat="52.895044" lon="-0.6947">
        <ele>72.680466</ele>
        <time>2020-04-05T08:59:04.000Z</time>
      </trkpt>
      <trkpt lat="52.894994" lon="-0.694614">
        <ele>72.543185</ele>
        <time>2020-04-05T08:59:05.000Z</time>
      </trkpt>
      <trkpt lat="52.894938" lon="-0.694273">
        <ele>72.139935</ele>
        <time>2020-04-05T08:59:07.000Z</time>
      </trkpt>
      <trkpt lat="52.894853" lon="-0.690698">
        <ele>70.639992</ele>
        <time>2020-04-05T08:59:31.000Z</time>
      </trkpt>
      <trkpt lat="52.894774" lon="-0.690231">
        <ele>70.669131</ele>
        <time>2020-04-05T08:59:34.000Z</time>
      </trkpt>
      <trkpt lat="52.894756" lon="-0.690147">
        <ele>70.734792</ele>
        <time>2020-04-05T08:59:35.000Z</time>
      </trkpt>
      <trkpt lat="52.894694" lon="-0.690079">
        <ele>70.814783</ele>
        <time>2020-04-05T08:59:36.000Z</time>
      </trkpt>
      <trkpt lat="52.894497" lon="-0.69006">
        <ele>71.039743</ele>
        <time>2020-04-05T08:59:38.000Z</time>
      </trkpt>
      <trkpt lat="52.894355" lon="-0.690044">
        <ele>71.216095</ele>
        <time>2020-04-05T08:59:40.000Z</time>
      </trkpt>
      <trkpt lat="52.893553" lon="-0.689813">
        <ele>72.178642</ele>
        <time>2020-04-05T08:59:49.000Z</time>
      </trkpt>
      <trkpt lat="52.892579" lon="-0.689542">
        <ele>74.774657</ele>
        <time>2020-04-05T09:00:00.000Z</time>
      </trkpt>
      <trkpt lat="52.890482" lon="-0.688822">
        <ele>83.883618</ele>
        <time>2020-04-05T09:00:24.000Z</time>
      </trkpt>
      <trkpt lat="52.890361" lon="-0.688803">
        <ele>84.494914</ele>
        <time>2020-04-05T09:00:25.000Z</time>
      </trkpt>
      <trkpt lat="52.890226" lon="-0.688752">
        <ele>85.225393</ele>
        <time>2020-04-05T09:00:27.000Z</time>
      </trkpt>
      <trkpt lat="52.889701" lon="-0.688675">
        <ele>87.777117</ele>
        <time>2020-04-05T09:00:33.000Z</time>
      </trkpt>
      <trkpt lat="52.88938" lon="-0.688633">
        <ele>88.914261</ele>
        <time>2020-04-05T09:00:37.000Z</time>
      </trkpt>
      <trkpt lat="52.889172" lon="-0.688562">
        <ele>89.399232</ele>
        <time>2020-04-05T09:00:39.000Z</time>
      </trkpt>
      <trkpt lat="52.889014" lon="-0.688503">
        <ele>89.799292</ele>
        <time>2020-04-05T09:00:41.000Z</time>
      </trkpt>
      <trkpt lat="52.888669" lon="-0.688331">
        <ele>90.681149</ele>
        <time>2020-04-05T09:00:45.000Z</time>
      </trkpt>
      <trkpt lat="52.887941" lon="-0.687946">
        <ele>92.528804</ele>
        <time>2020-04-05T09:00:53.000Z</time>
      </trkpt>
      <trkpt lat="52.887791" lon="-0.687875">
        <ele>92.75663</ele>
        <time>2020-04-05T09:00:55.000Z</time>
      </trkpt>
      <trkpt lat="52.887712" lon="-0.687807">
        <ele>92.669744</ele>
        <time>2020-04-05T09:00:56.000Z</time>
      </trkpt>
      <trkpt lat="52.887828" lon="-0.687546">
        <ele>92.496112</ele>
        <time>2020-04-05T09:00:58.000Z</time>
      </trkpt>
      <trkpt lat="52.888025" lon="-0.687095">
        <ele>92.189726</ele>
        <time>2020-04-05T09:01:02.000Z</time>
      </trkpt>
      <trkpt lat="52.888193" lon="-0.686758">
        <ele>91.968003</ele>
        <time>2020-04-05T09:01:05.000Z</time>
      </trkpt>
      <trkpt lat="52.888259" lon="-0.68659">
        <ele>91.851786</ele>
        <time>2020-04-05T09:01:06.000Z</time>
      </trkpt>
      <trkpt lat="52.888507" lon="-0.686039">
        <ele>91.482837</ele>
        <time>2020-04-05T09:01:11.000Z</time>
      </trkpt>
      <trkpt lat="52.888879" lon="-0.685262">
        <ele>90.837755</ele>
        <time>2020-04-05T09:01:18.000Z</time>
      </trkpt>
      <trkpt lat="52.889223" lon="-0.684492">
        <ele>90.067004</ele>
        <time>2020-04-05T09:01:24.000Z</time>
      </trkpt>
      <trkpt lat="52.88966" lon="-0.68342">
        <ele>89.06179</ele>
        <time>2020-04-05T09:01:33.000Z</time>
      </trkpt>
      <trkpt lat="52.890052" lon="-0.682191">
        <ele>87.732664</ele>
        <time>2020-04-05T09:01:42.000Z</time>
      </trkpt>
      <trkpt lat="52.890387" lon="-0.681194">
        <ele>86.633569</ele>
        <time>2020-04-05T09:01:50.000Z</time>
      </trkpt>
      <trkpt lat="52.89124" lon="-0.678707">
        <ele>82.267879</ele>
        <time>2020-04-05T09:02:09.000Z</time>
      </trkpt>
      <trkpt lat="52.891367" lon="-0.678477">
        <ele>81.761741</ele>
        <time>2020-04-05T09:02:11.000Z</time>
      </trkpt>
      <trkpt lat="52.891475" lon="-0.678244">
        <ele>81.24853</ele>
        <time>2020-04-05T09:02:13.000Z</time>
      </trkpt>
      <trkpt lat="52.892089" lon="-0.677138">
        <ele>78.7216</ele>
        <time>2020-04-05T09:02:23.000Z</time>
      </trkpt>
      <trkpt lat="52.893491" lon="-0.674199">
        <ele>73.279054</ele>
        <time>2020-04-05T09:02:48.000Z</time>
      </trkpt>
      <trkpt lat="52.894263" lon="-0.672998">
        <ele>71.832048</ele>
        <time>2020-04-05T09:03:00.000Z</time>
      </trkpt>
      <trkpt lat="52.894741" lon="-0.672341">
        <ele>71.561007</ele>
        <time>2020-04-05T09:03:07.000Z</time>
      </trkpt>
      <trkpt lat="52.894974" lon="-0.672003">
        <ele>71.419352</ele>
        <time>2020-04-05T09:03:10.000Z</time>
      </trkpt>
      <trkpt lat="52.89526" lon="-0.671549">
        <ele>71.250661</ele>
        <time>2020-04-05T09:03:14.000Z</time>
      </trkpt>
      <trkpt lat="52.895429" lon="-0.671189">
        <ele>71.427024</ele>
        <time>2020-04-05T09:03:17.000Z</time>
      </trkpt>
      <trkpt lat="52.895898" lon="-0.669524">
        <ele>72.145514</ele>
        <time>2020-04-05T09:03:29.000Z</time>
      </trkpt>
      <trkpt lat="52.896631" lon="-0.667595">
        <ele>72.436785</ele>
        <time>2020-04-05T09:03:44.000Z</time>
      </trkpt>
      <trkpt lat="52.897003" lon="-0.666534">
        <ele>72.45299</ele>
        <time>2020-04-05T09:03:52.000Z</time>
      </trkpt>
      <trkpt lat="52.897065" lon="-0.666304">
        <ele>72.422552</ele>
        <time>2020-04-05T09:03:54.000Z</time>
      </trkpt>
      <trkpt lat="52.89711" lon="-0.666161">
        <ele>72.367075</ele>
        <time>2020-04-05T09:03:55.000Z</time>
      </trkpt>
      <trkpt lat="52.897163" lon="-0.665765">
        <ele>72.228514</ele>
        <time>2020-04-05T09:03:58.000Z</time>
      </trkpt>
      <trkpt lat="52.897205" lon="-0.665627">
        <ele>72.175013</ele>
        <time>2020-04-05T09:03:59.000Z</time>
      </trkpt>
      <trkpt lat="52.897232" lon="-0.665605">
        <ele>72.152083</ele>
        <time>2020-04-05T09:03:59.000Z</time>
      </trkpt>
      <trkpt lat="52.897323" lon="-0.66546">
        <ele>72.083173</ele>
        <time>2020-04-05T09:04:00.000Z</time>
      </trkpt>
      <trkpt lat="52.897324" lon="-0.6654">
        <ele>72.059879</ele>
        <time>2020-04-05T09:04:00.000Z</time>
      </trkpt>
      <trkpt lat="52.897447" lon="-0.664883">
        <ele>71.867865</ele>
        <time>2020-04-05T09:04:04.000Z</time>
      </trkpt>
      <trkpt lat="52.897515" lon="-0.664597">
        <ele>71.761361</ele>
        <time>2020-04-05T09:04:06.000Z</time>
      </trkpt>
      <trkpt lat="52.897726" lon="-0.663507">
        <ele>71.335054</ele>
        <time>2020-04-05T09:04:14.000Z</time>
      </trkpt>
      <trkpt lat="52.897855" lon="-0.662848">
        <ele>70.975282</ele>
        <time>2020-04-05T09:04:19.000Z</time>
      </trkpt>
      <trkpt lat="52.897959" lon="-0.66229">
        <ele>70.661593</ele>
        <time>2020-04-05T09:04:23.000Z</time>
      </trkpt>
      <trkpt lat="52.898122" lon="-0.661502">
        <ele>70.230987</ele>
        <time>2020-04-05T09:04:29.000Z</time>
      </trkpt>
      <trkpt lat="52.898211" lon="-0.661042">
        <ele>69.974653</ele>
        <time>2020-04-05T09:04:32.000Z</time>
      </trkpt>
      <trkpt lat="52.898273" lon="-0.660851">
        <ele>69.858694</ele>
        <time>2020-04-05T09:04:33.000Z</time>
      </trkpt>
      <trkpt lat="52.898355" lon="-0.660535">
        <ele>69.816522</ele>
        <time>2020-04-05T09:04:35.000Z</time>
      </trkpt>
      <trkpt lat="52.898457" lon="-0.660635">
        <ele>69.789831</ele>
        <time>2020-04-05T09:04:36.000Z</time>
      </trkpt>
      <trkpt lat="52.898688" lon="-0.660734">
        <ele>69.742985</ele>
        <time>2020-04-05T09:04:39.000Z</time>
      </trkpt>
      <trkpt lat="52.898762" lon="-0.660794">
        <ele>69.724799</ele>
        <time>2020-04-05T09:04:40.000Z</time>
      </trkpt>
      <trkpt lat="52.89875" lon="-0.660783">
        <ele>69.724804</ele>
        <time>2020-04-05T09:04:40.000Z</time>
      </trkpt>
      <trkpt lat="52.898834" lon="-0.66086">
        <ele>69.707</ele>
        <time>2020-04-05T09:04:41.000Z</time>
      </trkpt>
      <trkpt lat="52.899026" lon="-0.661087">
        <ele>69.658701</ele>
        <time>2020-04-05T09:04:44.000Z</time>
      </trkpt>
      <trkpt lat="52.899123" lon="-0.661425">
        <ele>69.610999</ele>
        <time>2020-04-05T09:04:47.000Z</time>
      </trkpt>
      <trkpt lat="52.899143" lon="-0.661522">
        <ele>69.597725</ele>
        <time>2020-04-05T09:04:48.000Z</time>
      </trkpt>
      <trkpt lat="52.89913" lon="-0.661531">
        <ele>69.591065</ele>
        <time>2020-04-05T09:04:48.000Z</time>
      </trkpt>
      <trkpt lat="52.899073" lon="-0.661665">
        <ele>69.571533</ele>
        <time>2020-04-05T09:04:49.000Z</time>
      </trkpt>
      <trkpt lat="52.899095" lon="-0.661785">
        <ele>69.558229</ele>
        <time>2020-04-05T09:04:50.000Z</time>
      </trkpt>
      <trkpt lat="52.899116" lon="-0.661827">
        <ele>69.551493</ele>
        <time>2020-04-05T09:04:50.000Z</time>
      </trkpt>
      <trkpt lat="52.899137" lon="-0.661848">
        <ele>69.543783</ele>
        <time>2020-04-05T09:04:50.000Z</time>
      </trkpt>
      <trkpt lat="52.899166" lon="-0.661862">
        <ele>69.536075</ele>
        <time>2020-04-05T09:04:50.000Z</time>
      </trkpt>
      <trkpt lat="52.89922" lon="-0.661862">
        <ele>69.528269</ele>
        <time>2020-04-05T09:04:51.000Z</time>
      </trkpt>
      <trkpt lat="52.899271" lon="-0.66179">
        <ele>69.512993</ele>
        <time>2020-04-05T09:04:52.000Z</time>
      </trkpt>
      <trkpt lat="52.899282" lon="-0.661732">
        <ele>69.505239</ele>
        <time>2020-04-05T09:04:52.000Z</time>
      </trkpt>
      <trkpt lat="52.899343" lon="-0.661748">
        <ele>69.491254</ele>
        <time>2020-04-05T09:04:53.000Z</time>
      </trkpt>
      <trkpt lat="52.899437" lon="-0.66176">
        <ele>69.527802</ele>
        <time>2020-04-05T09:04:54.000Z</time>
      </trkpt>
      <trkpt lat="52.899525" lon="-0.661764">
        <ele>69.633967</ele>
        <time>2020-04-05T09:04:55.000Z</time>
      </trkpt>
      <trkpt lat="52.899638" lon="-0.661809">
        <ele>69.753117</ele>
        <time>2020-04-05T09:04:56.000Z</time>
      </trkpt>
      <trkpt lat="52.899852" lon="-0.662148">
        <ele>70.087246</ele>
        <time>2020-04-05T09:04:59.000Z</time>
      </trkpt>
      <trkpt lat="52.899974" lon="-0.662352">
        <ele>70.261942</ele>
        <time>2020-04-05T09:05:01.000Z</time>
      </trkpt>
      <trkpt lat="52.900114" lon="-0.662601">
        <ele>70.487872</ele>
        <time>2020-04-05T09:05:03.000Z</time>
      </trkpt>
      <trkpt lat="52.900131" lon="-0.662636">
        <ele>70.519167</ele>
        <time>2020-04-05T09:05:03.000Z</time>
      </trkpt>
      <trkpt lat="52.900283" lon="-0.662924">
        <ele>70.789695</ele>
        <time>2020-04-05T09:05:06.000Z</time>
      </trkpt>
      <trkpt lat="52.900424" lon="-0.663222">
        <ele>71.036859</ele>
        <time>2020-04-05T09:05:09.000Z</time>
      </trkpt>
      <trkpt lat="52.900454" lon="-0.663288">
        <ele>71.093386</ele>
        <time>2020-04-05T09:05:10.000Z</time>
      </trkpt>
      <trkpt lat="52.900531" lon="-0.663459">
        <ele>71.228716</ele>
        <time>2020-04-05T09:05:11.000Z</time>
      </trkpt>
      <trkpt lat="52.900628" lon="-0.663707">
        <ele>71.424451</ele>
        <time>2020-04-05T09:05:13.000Z</time>
      </trkpt>
      <trkpt lat="52.900665" lon="-0.663832">
        <ele>71.541365</ele>
        <time>2020-04-05T09:05:14.000Z</time>
      </trkpt>
      <trkpt lat="52.9007" lon="-0.663935">
        <ele>71.666303</ele>
        <time>2020-04-05T09:05:15.000Z</time>
      </trkpt>
      <trkpt lat="52.900882" lon="-0.664637">
        <ele>72.491975</ele>
        <time>2020-04-05T09:05:20.000Z</time>
      </trkpt>
      <trkpt lat="52.901051" lon="-0.664998">
        <ele>72.981373</ele>
        <time>2020-04-05T09:05:23.000Z</time>
      </trkpt>
      <trkpt lat="52.901272" lon="-0.665241">
        <ele>73.445073</ele>
        <time>2020-04-05T09:05:26.000Z</time>
      </trkpt>
      <trkpt lat="52.901446" lon="-0.66542">
        <ele>73.803774</ele>
        <time>2020-04-05T09:05:28.000Z</time>
      </trkpt>
      <trkpt lat="52.901477" lon="-0.665437">
        <ele>73.862332</ele>
        <time>2020-04-05T09:05:28.000Z</time>
      </trkpt>
      <trkpt lat="52.901614" lon="-0.66552">
        <ele>74.116139</ele>
        <time>2020-04-05T09:05:30.000Z</time>
      </trkpt>
      <trkpt lat="52.901939" lon="-0.665615">
        <ele>74.711483</ele>
        <time>2020-04-05T09:05:34.000Z</time>
      </trkpt>
      <trkpt lat="52.902042" lon="-0.665623">
        <ele>74.850893</ele>
        <time>2020-04-05T09:05:35.000Z</time>
      </trkpt>
      <trkpt lat="52.902101" lon="-0.665609">
        <ele>74.958969</ele>
        <time>2020-04-05T09:05:36.000Z</time>
      </trkpt>
      <trkpt lat="52.902196" lon="-0.665594">
        <ele>75.103769</ele>
        <time>2020-04-05T09:05:37.000Z</time>
      </trkpt>
      <trkpt lat="52.902271" lon="-0.665595">
        <ele>75.22656</ele>
        <time>2020-04-05T09:05:38.000Z</time>
      </trkpt>
      <trkpt lat="52.90235" lon="-0.665556">
        <ele>75.356402</ele>
        <time>2020-04-05T09:05:39.000Z</time>
      </trkpt>
      <trkpt lat="52.902582" lon="-0.665423">
        <ele>75.739522</ele>
        <time>2020-04-05T09:05:42.000Z</time>
      </trkpt>
      <trkpt lat="52.902948" lon="-0.665213">
        <ele>76.332133</ele>
        <time>2020-04-05T09:05:46.000Z</time>
      </trkpt>
      <trkpt lat="52.903123" lon="-0.665126">
        <ele>76.644477</ele>
        <time>2020-04-05T09:05:48.000Z</time>
      </trkpt>
      <trkpt lat="52.903343" lon="-0.665016">
        <ele>76.993553</ele>
        <time>2020-04-05T09:05:51.000Z</time>
      </trkpt>
      <trkpt lat="52.90337" lon="-0.665002">
        <ele>77.039959</ele>
        <time>2020-04-05T09:05:51.000Z</time>
      </trkpt>
      <trkpt lat="52.9035" lon="-0.664967">
        <ele>77.24486</ele>
        <time>2020-04-05T09:05:52.000Z</time>
      </trkpt>
      <trkpt lat="52.903545" lon="-0.665097">
        <ele>77.389038</ele>
        <time>2020-04-05T09:05:53.000Z</time>
      </trkpt>
      <trkpt lat="52.90357" lon="-0.665272">
        <ele>77.555258</ele>
        <time>2020-04-05T09:05:54.000Z</time>
      </trkpt>
      <trkpt lat="52.903645" lon="-0.665569">
        <ele>77.853726</ele>
        <time>2020-04-05T09:05:56.000Z</time>
      </trkpt>
      <trkpt lat="52.90372" lon="-0.665937">
        <ele>78.204891</ele>
        <time>2020-04-05T09:05:59.000Z</time>
      </trkpt>
      <trkpt lat="52.903804" lon="-0.666199">
        <ele>78.488523</ele>
        <time>2020-04-05T09:06:01.000Z</time>
      </trkpt>
      <trkpt lat="52.903887" lon="-0.66645">
        <ele>78.741681</ele>
        <time>2020-04-05T09:06:03.000Z</time>
      </trkpt>
      <trkpt lat="52.904262" lon="-0.667202">
        <ele>79.644766</ele>
        <time>2020-04-05T09:06:10.000Z</time>
      </trkpt>
      <trkpt lat="52.904656" lon="-0.667734">
        <ele>80.374807</ele>
        <time>2020-04-05T09:06:16.000Z</time>
      </trkpt>
      <trkpt lat="52.904745" lon="-0.667809">
        <ele>80.493896</ele>
        <time>2020-04-05T09:06:17.000Z</time>
      </trkpt>
      <trkpt lat="52.90489" lon="-0.667945">
        <ele>80.702378</ele>
        <time>2020-04-05T09:06:19.000Z</time>
      </trkpt>
      <trkpt lat="52.905059" lon="-0.668079">
        <ele>80.927972</ele>
        <time>2020-04-05T09:06:21.000Z</time>
      </trkpt>
      <trkpt lat="52.905248" lon="-0.668211">
        <ele>81.179386</ele>
        <time>2020-04-05T09:06:23.000Z</time>
      </trkpt>
      <trkpt lat="52.905538" lon="-0.668372">
        <ele>81.552048</ele>
        <time>2020-04-05T09:06:26.000Z</time>
      </trkpt>
      <trkpt lat="52.905809" lon="-0.668464">
        <ele>81.888223</ele>
        <time>2020-04-05T09:06:29.000Z</time>
      </trkpt>
      <trkpt lat="52.906043" lon="-0.668538">
        <ele>82.167558</ele>
        <time>2020-04-05T09:06:32.000Z</time>
      </trkpt>
      <trkpt lat="52.906139" lon="-0.668532">
        <ele>82.298533</ele>
        <time>2020-04-05T09:06:33.000Z</time>
      </trkpt>
      <trkpt lat="52.906275" lon="-0.668551">
        <ele>82.409827</ele>
        <time>2020-04-05T09:06:35.000Z</time>
      </trkpt>
      <trkpt lat="52.90659" lon="-0.668575">
        <ele>82.500321</ele>
        <time>2020-04-05T09:06:39.000Z</time>
      </trkpt>
      <trkpt lat="52.90668" lon="-0.668553">
        <ele>82.524413</ele>
        <time>2020-04-05T09:06:40.000Z</time>
      </trkpt>
      <trkpt lat="52.906753" lon="-0.668531">
        <ele>82.547882</ele>
        <time>2020-04-05T09:06:41.000Z</time>
      </trkpt>
      <trkpt lat="52.906846" lon="-0.668592">
        <ele>82.577048</ele>
        <time>2020-04-05T09:06:42.000Z</time>
      </trkpt>
      <trkpt lat="52.906993" lon="-0.668612">
        <ele>82.621971</ele>
        <time>2020-04-05T09:06:44.000Z</time>
      </trkpt>
      <trkpt lat="52.907149" lon="-0.66863">
        <ele>82.667508</ele>
        <time>2020-04-05T09:06:46.000Z</time>
      </trkpt>
      <trkpt lat="52.907684" lon="-0.668645">
        <ele>82.825827</ele>
        <time>2020-04-05T09:06:52.000Z</time>
      </trkpt>
      <trkpt lat="52.907726" lon="-0.668634">
        <ele>82.837868</ele>
        <time>2020-04-05T09:06:52.000Z</time>
      </trkpt>
      <trkpt lat="52.908625" lon="-0.668698">
        <ele>83.214785</ele>
        <time>2020-04-05T09:07:02.000Z</time>
      </trkpt>
      <trkpt lat="52.909602" lon="-0.668781">
        <ele>83.698562</ele>
        <time>2020-04-05T09:07:13.000Z</time>
      </trkpt>
      <trkpt lat="52.909748" lon="-0.668781">
        <ele>83.762431</ele>
        <time>2020-04-05T09:07:15.000Z</time>
      </trkpt>
      <trkpt lat="52.909751" lon="-0.669887">
        <ele>84.070606</ele>
        <time>2020-04-05T09:07:22.000Z</time>
      </trkpt>
      <trkpt lat="52.909757" lon="-0.670157">
        <ele>84.143484</ele>
        <time>2020-04-05T09:07:24.000Z</time>
      </trkpt>
      <trkpt lat="52.909746" lon="-0.671444">
        <ele>84.503397</ele>
        <time>2020-04-05T09:07:33.000Z</time>
      </trkpt>
      <trkpt lat="52.909745" lon="-0.672549">
        <ele>84.73984</ele>
        <time>2020-04-05T09:07:40.000Z</time>
      </trkpt>
      <trkpt lat="52.909761" lon="-0.673366">
        <ele>84.885097</ele>
        <time>2020-04-05T09:07:45.000Z</time>
      </trkpt>
      <trkpt lat="52.909756" lon="-0.673668">
        <ele>84.939033</ele>
        <time>2020-04-05T09:07:47.000Z</time>
      </trkpt>
      <trkpt lat="52.909773" lon="-0.674948">
        <ele>85.171173</ele>
        <time>2020-04-05T09:07:56.000Z</time>
      </trkpt>
      <trkpt lat="52.909764" lon="-0.675057">
        <ele>85.197167</ele>
        <time>2020-04-05T09:07:57.000Z</time>
      </trkpt>
      <trkpt lat="52.909771" lon="-0.675296">
        <ele>85.25596</ele>
        <time>2020-04-05T09:07:59.000Z</time>
      </trkpt>
      <trkpt lat="52.90977" lon="-0.67637">
        <ele>85.516621</ele>
        <time>2020-04-05T09:08:06.000Z</time>
      </trkpt>
      <trkpt lat="52.909768" lon="-0.677261">
        <ele>85.731857</ele>
        <time>2020-04-05T09:08:12.000Z</time>
      </trkpt>
      <trkpt lat="52.909755" lon="-0.677849">
        <ele>85.87499</ele>
        <time>2020-04-05T09:08:16.000Z</time>
      </trkpt>
      <trkpt lat="52.909767" lon="-0.67902">
        <ele>86.428434</ele>
        <time>2020-04-05T09:08:24.000Z</time>
      </trkpt>
      <trkpt lat="52.909763" lon="-0.681208">
        <ele>87.510723</ele>
        <time>2020-04-05T09:08:39.000Z</time>
      </trkpt>
      <trkpt lat="52.909794" lon="-0.682218">
        <ele>88.140716</ele>
        <time>2020-04-05T09:08:46.000Z</time>
      </trkpt>
      <trkpt lat="52.910058" lon="-0.68518">
        <ele>89.969142</ele>
        <time>2020-04-05T09:09:06.000Z</time>
      </trkpt>
      <trkpt lat="52.910148" lon="-0.686192">
        <ele>90.593287</ele>
        <time>2020-04-05T09:09:13.000Z</time>
      </trkpt>
      <trkpt lat="52.910162" lon="-0.686376">
        <ele>90.712356</ele>
        <time>2020-04-05T09:09:14.000Z</time>
      </trkpt>
      <trkpt lat="52.910288" lon="-0.687529">
        <ele>90.726183</ele>
        <time>2020-04-05T09:09:22.000Z</time>
      </trkpt>
      <trkpt lat="52.910417" lon="-0.687939">
        <ele>90.604788</ele>
        <time>2020-04-05T09:09:25.000Z</time>
      </trkpt>
      <trkpt lat="52.910447" lon="-0.687989">
        <ele>90.58331</ele>
        <time>2020-04-05T09:09:25.000Z</time>
      </trkpt>
      <trkpt lat="52.910339" lon="-0.688156">
        <ele>90.518665</ele>
        <time>2020-04-05T09:09:27.000Z</time>
      </trkpt>
      <trkpt lat="52.910264" lon="-0.688214">
        <ele>90.481753</ele>
        <time>2020-04-05T09:09:28.000Z</time>
      </trkpt>
      <trkpt lat="52.909822" lon="-0.688392">
        <ele>90.282631</ele>
        <time>2020-04-05T09:09:33.000Z</time>
      </trkpt>
      <trkpt lat="52.909592" lon="-0.688491">
        <ele>90.178372</ele>
        <time>2020-04-05T09:09:36.000Z</time>
      </trkpt>
      <trkpt lat="52.909072" lon="-0.688723">
        <ele>89.357083</ele>
        <time>2020-04-05T09:09:42.000Z</time>
      </trkpt>
      <trkpt lat="52.908676" lon="-0.688903">
        <ele>88.652741</ele>
        <time>2020-04-05T09:09:47.000Z</time>
      </trkpt>
      <trkpt lat="52.907759" lon="-0.689299">
        <ele>87.104447</ele>
        <time>2020-04-05T09:09:58.000Z</time>
      </trkpt>
      <trkpt lat="52.907234" lon="-0.68952">
        <ele>86.959734</ele>
        <time>2020-04-05T09:10:04.000Z</time>
      </trkpt>
      <trkpt lat="52.906906" lon="-0.689769">
        <ele>86.860567</ele>
        <time>2020-04-05T09:10:08.000Z</time>
      </trkpt>
      <trkpt lat="52.905967" lon="-0.690692">
        <ele>87.09336</ele>
        <time>2020-04-05T09:10:20.000Z</time>
      </trkpt>
      <trkpt lat="52.905242" lon="-0.691257">
        <ele>88.682917</ele>
        <time>2020-04-05T09:10:29.000Z</time>
      </trkpt>
      <trkpt lat="52.90334" lon="-0.692657">
        <ele>93.934983</ele>
        <time>2020-04-05T09:10:52.000Z</time>
      </trkpt>
      <trkpt lat="52.90265" lon="-0.693144">
        <ele>95.448449</ele>
        <time>2020-04-05T09:11:00.000Z</time>
      </trkpt>
      <trkpt lat="52.902162" lon="-0.693462">
        <ele>95.746198</ele>
        <time>2020-04-05T09:11:06.000Z</time>
      </trkpt>
      <trkpt lat="52.901805" lon="-0.693634">
        <ele>95.958151</ele>
        <time>2020-04-05T09:11:10.000Z</time>
      </trkpt>
      <trkpt lat="52.901771" lon="-0.693651">
        <ele>95.971216</ele>
        <time>2020-04-05T09:11:10.000Z</time>
      </trkpt>
      <trkpt lat="52.900887" lon="-0.693998">
        <ele>95.078526</ele>
        <time>2020-04-05T09:11:20.000Z</time>
      </trkpt>
      <trkpt lat="52.899548" lon="-0.694325">
        <ele>89.742257</ele>
        <time>2020-04-05T09:11:35.000Z</time>
      </trkpt>
      <trkpt lat="52.897885" lon="-0.694544">
        <ele>81.586882</ele>
        <time>2020-04-05T09:11:54.000Z</time>
      </trkpt>
      <trkpt lat="52.895126" lon="-0.69476">
        <ele>72.882466</ele>
        <time>2020-04-05T09:12:25.000Z</time>
      </trkpt>
      <trkpt lat="52.895034" lon="-0.694702">
        <ele>72.718581</ele>
        <time>2020-04-05T09:12:26.000Z</time>
      </trkpt>
      <trkpt lat="52.894989" lon="-0.694621">
        <ele>72.593066</ele>
        <time>2020-04-05T09:12:27.000Z</time>
      </trkpt>
      <trkpt lat="52.894932" lon="-0.69427">
        <ele>72.224408</ele>
        <time>2020-04-05T09:12:29.000Z</time>
      </trkpt>
      <trkpt lat="52.894848" lon="-0.690695">
        <ele>70.694827</ele>
        <time>2020-04-05T09:12:53.000Z</time>
      </trkpt>
      <trkpt lat="52.894774" lon="-0.690231">
        <ele>70.645097</ele>
        <time>2020-04-05T09:12:56.000Z</time>
      </trkpt>
      <trkpt lat="52.89475" lon="-0.690147">
        <ele>70.635588</ele>
        <time>2020-04-05T09:12:57.000Z</time>
      </trkpt>
      <trkpt lat="52.894686" lon="-0.690086">
        <ele>70.697749</ele>
        <time>2020-04-05T09:12:58.000Z</time>
      </trkpt>
      <trkpt lat="52.894496" lon="-0.690062">
        <ele>70.956994</ele>
        <time>2020-04-05T09:13:00.000Z</time>
      </trkpt>
      <trkpt lat="52.894354" lon="-0.690041">
        <ele>71.160253</ele>
        <time>2020-04-05T09:13:02.000Z</time>
      </trkpt>
      <trkpt lat="52.893537" lon="-0.689804">
        <ele>72.26955</ele>
        <time>2020-04-05T09:13:11.000Z</time>
      </trkpt>
      <trkpt lat="52.892566" lon="-0.689543">
        <ele>74.656968</ele>
        <time>2020-04-05T09:13:22.000Z</time>
      </trkpt>
      <trkpt lat="52.890494" lon="-0.688828">
        <ele>83.847252</ele>
        <time>2020-04-05T09:13:46.000Z</time>
      </trkpt>
      <trkpt lat="52.890371" lon="-0.688795">
        <ele>84.454232</ele>
        <time>2020-04-05T09:13:47.000Z</time>
      </trkpt>
      <trkpt lat="52.890222" lon="-0.688769">
        <ele>85.179534</ele>
        <time>2020-04-05T09:13:49.000Z</time>
      </trkpt>
      <trkpt lat="52.889696" lon="-0.688673">
        <ele>87.713245</ele>
        <time>2020-04-05T09:13:55.000Z</time>
      </trkpt>
      <trkpt lat="52.889378" lon="-0.688636">
        <ele>89.186325</ele>
        <time>2020-04-05T09:13:59.000Z</time>
      </trkpt>
      <trkpt lat="52.889183" lon="-0.688574">
        <ele>89.598204</ele>
        <time>2020-04-05T09:14:01.000Z</time>
      </trkpt>
      <trkpt lat="52.889018" lon="-0.688497">
        <ele>89.937956</ele>
        <time>2020-04-05T09:14:03.000Z</time>
      </trkpt>
      <trkpt lat="52.888671" lon="-0.688345">
        <ele>90.686884</ele>
        <time>2020-04-05T09:14:07.000Z</time>
      </trkpt>
      <trkpt lat="52.887941" lon="-0.687957">
        <ele>92.256031</ele>
        <time>2020-04-05T09:14:16.000Z</time>
      </trkpt>
      <trkpt lat="52.887797" lon="-0.687879">
        <ele>92.550269</ele>
        <time>2020-04-05T09:14:18.000Z</time>
      </trkpt>
      <trkpt lat="52.887704" lon="-0.6878">
        <ele>92.749884</ele>
        <time>2020-04-05T09:14:19.000Z</time>
      </trkpt>
      <trkpt lat="52.888025" lon="-0.687094">
        <ele>92.245398</ele>
        <time>2020-04-05T09:14:25.000Z</time>
      </trkpt>
      <trkpt lat="52.888187" lon="-0.686772">
        <ele>91.995957</ele>
        <time>2020-04-05T09:14:28.000Z</time>
      </trkpt>
      <trkpt lat="52.888269" lon="-0.686598">
        <ele>91.865208</ele>
        <time>2020-04-05T09:14:29.000Z</time>
      </trkpt>
      <trkpt lat="52.888367" lon="-0.686354">
        <ele>91.689176</ele>
        <time>2020-04-05T09:14:31.000Z</time>
      </trkpt>
      <trkpt lat="52.888514" lon="-0.686042">
        <ele>91.450103</ele>
        <time>2020-04-05T09:14:34.000Z</time>
      </trkpt>
      <trkpt lat="52.888866" lon="-0.685261">
        <ele>90.816546</ele>
        <time>2020-04-05T09:14:41.000Z</time>
      </trkpt>
      <trkpt lat="52.889225" lon="-0.684489">
        <ele>90.061889</ele>
        <time>2020-04-05T09:14:48.000Z</time>
      </trkpt>
      <trkpt lat="52.889642" lon="-0.683437">
        <ele>89.077649</ele>
        <time>2020-04-05T09:14:56.000Z</time>
      </trkpt>
      <trkpt lat="52.89006" lon="-0.682182">
        <ele>87.747907</ele>
        <time>2020-04-05T09:15:06.000Z</time>
      </trkpt>
      <trkpt lat="52.890383" lon="-0.681193">
        <ele>86.579091</ele>
        <time>2020-04-05T09:15:14.000Z</time>
      </trkpt>
      <trkpt lat="52.891256" lon="-0.678697">
        <ele>82.26856</ele>
        <time>2020-04-05T09:15:33.000Z</time>
      </trkpt>
      <trkpt lat="52.891354" lon="-0.678474">
        <ele>81.753221</ele>
        <time>2020-04-05T09:15:35.000Z</time>
      </trkpt>
      <trkpt lat="52.891473" lon="-0.678244">
        <ele>81.230656</ele>
        <time>2020-04-05T09:15:37.000Z</time>
      </trkpt>
      <trkpt lat="52.892082" lon="-0.677136">
        <ele>78.71096</ele>
        <time>2020-04-05T09:15:47.000Z</time>
      </trkpt>
      <trkpt lat="52.893476" lon="-0.674209">
        <ele>73.323465</ele>
        <time>2020-04-05T09:16:12.000Z</time>
      </trkpt>
      <trkpt lat="52.894265" lon="-0.673002">
        <ele>71.756556</ele>
        <time>2020-04-05T09:16:24.000Z</time>
      </trkpt>
      <trkpt lat="52.894728" lon="-0.672343">
        <ele>71.573259</ele>
        <time>2020-04-05T09:16:31.000Z</time>
      </trkpt>
      <trkpt lat="52.89499" lon="-0.672004">
        <ele>71.477462</ele>
        <time>2020-04-05T09:16:35.000Z</time>
      </trkpt>
      <trkpt lat="52.895274" lon="-0.671561">
        <ele>71.359926</ele>
        <time>2020-04-05T09:16:39.000Z</time>
      </trkpt>
      <trkpt lat="52.895417" lon="-0.671186">
        <ele>71.402902</ele>
        <time>2020-04-05T09:16:42.000Z</time>
      </trkpt>
      <trkpt lat="52.895887" lon="-0.669524">
        <ele>72.120554</ele>
        <time>2020-04-05T09:16:54.000Z</time>
      </trkpt>
      <trkpt lat="52.896618" lon="-0.667589">
        <ele>72.447409</ele>
        <time>2020-04-05T09:17:09.000Z</time>
      </trkpt>
      <trkpt lat="52.897002" lon="-0.666529">
        <ele>72.412947</ele>
        <time>2020-04-05T09:17:17.000Z</time>
      </trkpt>
      <trkpt lat="52.897063" lon="-0.666306">
        <ele>72.406398</ele>
        <time>2020-04-05T09:17:19.000Z</time>
      </trkpt>
      <trkpt lat="52.897112" lon="-0.666159">
        <ele>72.397309</ele>
        <time>2020-04-05T09:17:20.000Z</time>
      </trkpt>
      <trkpt lat="52.897166" lon="-0.665779">
        <ele>72.250307</ele>
        <time>2020-04-05T09:17:23.000Z</time>
      </trkpt>
      <trkpt lat="52.897192" lon="-0.665635">
        <ele>72.193546</ele>
        <time>2020-04-05T09:17:24.000Z</time>
      </trkpt>
      <trkpt lat="52.897243" lon="-0.665617">
        <ele>72.169219</ele>
        <time>2020-04-05T09:17:25.000Z</time>
      </trkpt>
      <trkpt lat="52.897323" lon="-0.665458">
        <ele>72.09612</ele>
        <time>2020-04-05T09:17:26.000Z</time>
      </trkpt>
      <trkpt lat="52.897322" lon="-0.66541">
        <ele>72.071391</ele>
        <time>2020-04-05T09:17:26.000Z</time>
      </trkpt>
      <trkpt lat="52.897443" lon="-0.664885">
        <ele>71.867703</ele>
        <time>2020-04-05T09:17:30.000Z</time>
      </trkpt>
      <trkpt lat="52.897501" lon="-0.664592">
        <ele>71.75472</ele>
        <time>2020-04-05T09:17:32.000Z</time>
      </trkpt>
      <trkpt lat="52.897722" lon="-0.663504">
        <ele>71.335378</ele>
        <time>2020-04-05T09:17:40.000Z</time>
      </trkpt>
      <trkpt lat="52.897862" lon="-0.662848">
        <ele>70.985672</ele>
        <time>2020-04-05T09:17:45.000Z</time>
      </trkpt>
      <trkpt lat="52.89796" lon="-0.662287">
        <ele>70.671147</ele>
        <time>2020-04-05T09:17:49.000Z</time>
      </trkpt>
      <trkpt lat="52.898126" lon="-0.661515">
        <ele>70.239392</ele>
        <time>2020-04-05T09:17:54.000Z</time>
      </trkpt>
      <trkpt lat="52.898169" lon="-0.661275">
        <ele>70.108605</ele>
        <time>2020-04-05T09:17:56.000Z</time>
      </trkpt>
      <trkpt lat="52.898222" lon="-0.661049">
        <ele>69.982368</ele>
        <time>2020-04-05T09:17:58.000Z</time>
      </trkpt>
      <trkpt lat="52.898274" lon="-0.660851">
        <ele>69.866104</ele>
        <time>2020-04-05T09:17:59.000Z</time>
      </trkpt>
      <trkpt lat="52.89834" lon="-0.660547">
        <ele>69.733588</ele>
        <time>2020-04-05T09:18:01.000Z</time>
      </trkpt>
      <trkpt lat="52.89846" lon="-0.660629">
        <ele>69.721817</ele>
        <time>2020-04-05T09:18:02.000Z</time>
      </trkpt>
      <trkpt lat="52.898675" lon="-0.660734">
        <ele>69.701176</ele>
        <time>2020-04-05T09:18:04.000Z</time>
      </trkpt>
      <trkpt lat="52.898755" lon="-0.660783">
        <ele>69.693169</ele>
        <time>2020-04-05T09:18:05.000Z</time>
      </trkpt>
      <trkpt lat="52.898837" lon="-0.660853">
        <ele>69.685321</ele>
        <time>2020-04-05T09:18:06.000Z</time>
      </trkpt>
      <trkpt lat="52.899025" lon="-0.661097">
        <ele>69.664023</ele>
        <time>2020-04-05T09:18:09.000Z</time>
      </trkpt>
      <trkpt lat="52.899139" lon="-0.661413">
        <ele>69.643008</ele>
        <time>2020-04-05T09:18:11.000Z</time>
      </trkpt>
      <trkpt lat="52.899143" lon="-0.661525">
        <ele>69.637168</ele>
        <time>2020-04-05T09:18:12.000Z</time>
      </trkpt>
      <trkpt lat="52.899124" lon="-0.661533">
        <ele>69.63422</ele>
        <time>2020-04-05T09:18:12.000Z</time>
      </trkpt>
      <trkpt lat="52.899069" lon="-0.66167">
        <ele>69.625617</ele>
        <time>2020-04-05T09:18:13.000Z</time>
      </trkpt>
      <trkpt lat="52.899096" lon="-0.66177">
        <ele>69.619758</ele>
        <time>2020-04-05T09:18:14.000Z</time>
      </trkpt>
      <trkpt lat="52.899111" lon="-0.661825">
        <ele>69.616792</ele>
        <time>2020-04-05T09:18:14.000Z</time>
      </trkpt>
      <trkpt lat="52.899145" lon="-0.661853">
        <ele>69.61339</ele>
        <time>2020-04-05T09:18:14.000Z</time>
      </trkpt>
      <trkpt lat="52.899171" lon="-0.661861">
        <ele>69.610002</ele>
        <time>2020-04-05T09:18:14.000Z</time>
      </trkpt>
      <trkpt lat="52.899206" lon="-0.661859">
        <ele>69.606564</ele>
        <time>2020-04-05T09:18:14.000Z</time>
      </trkpt>
      <trkpt lat="52.899276" lon="-0.661788">
        <ele>69.599828</ele>
        <time>2020-04-05T09:18:15.000Z</time>
      </trkpt>
      <trkpt lat="52.899291" lon="-0.661733">
        <ele>69.596405</ele>
        <time>2020-04-05T09:18:15.000Z</time>
      </trkpt>
      <trkpt lat="52.899343" lon="-0.661749">
        <ele>69.590251</ele>
        <time>2020-04-05T09:18:16.000Z</time>
      </trkpt>
      <trkpt lat="52.89944" lon="-0.661748">
        <ele>69.582401</ele>
        <time>2020-04-05T09:18:17.000Z</time>
      </trkpt>
      <trkpt lat="52.899537" lon="-0.661775">
        <ele>69.573523</ele>
        <time>2020-04-05T09:18:18.000Z</time>
      </trkpt>
      <trkpt lat="52.899626" lon="-0.661819">
        <ele>69.691824</ele>
        <time>2020-04-05T09:18:19.000Z</time>
      </trkpt>
      <trkpt lat="52.899857" lon="-0.662144">
        <ele>70.049437</ele>
        <time>2020-04-05T09:18:22.000Z</time>
      </trkpt>
      <trkpt lat="52.899957" lon="-0.66234">
        <ele>70.236405</ele>
        <time>2020-04-05T09:18:24.000Z</time>
      </trkpt>
      <trkpt lat="52.900098" lon="-0.662603">
        <ele>70.478213</ele>
        <time>2020-04-05T09:18:26.000Z</time>
      </trkpt>
      <trkpt lat="52.900115" lon="-0.662633">
        <ele>70.51171</ele>
        <time>2020-04-05T09:18:26.000Z</time>
      </trkpt>
      <trkpt lat="52.900295" lon="-0.662935">
        <ele>70.801253</ele>
        <time>2020-04-05T09:18:29.000Z</time>
      </trkpt>
      <trkpt lat="52.900433" lon="-0.663224">
        <ele>71.065787</ele>
        <time>2020-04-05T09:18:31.000Z</time>
      </trkpt>
      <trkpt lat="52.900454" lon="-0.66329">
        <ele>71.126284</ele>
        <time>2020-04-05T09:18:32.000Z</time>
      </trkpt>
      <trkpt lat="52.900538" lon="-0.663458">
        <ele>71.271118</ele>
        <time>2020-04-05T09:18:33.000Z</time>
      </trkpt>
      <trkpt lat="52.900621" lon="-0.663713">
        <ele>71.480617</ele>
        <time>2020-04-05T09:18:35.000Z</time>
      </trkpt>
      <trkpt lat="52.900659" lon="-0.663831">
        <ele>71.574268</ele>
        <time>2020-04-05T09:18:36.000Z</time>
      </trkpt>
      <trkpt lat="52.90069" lon="-0.663929">
        <ele>71.657408</ele>
        <time>2020-04-05T09:18:37.000Z</time>
      </trkpt>
      <trkpt lat="52.900889" lon="-0.664629">
        <ele>72.469025</ele>
        <time>2020-04-05T09:18:42.000Z</time>
      </trkpt>
      <trkpt lat="52.90105" lon="-0.664988">
        <ele>72.961057</ele>
        <time>2020-04-05T09:18:45.000Z</time>
      </trkpt>
      <trkpt lat="52.901265" lon="-0.665246">
        <ele>73.427238</ele>
        <time>2020-04-05T09:18:48.000Z</time>
      </trkpt>
      <trkpt lat="52.901435" lon="-0.665413">
        <ele>73.787865</ele>
        <time>2020-04-05T09:18:50.000Z</time>
      </trkpt>
      <trkpt lat="52.901483" lon="-0.665422">
        <ele>73.846733</ele>
        <time>2020-04-05T09:18:51.000Z</time>
      </trkpt>
      <trkpt lat="52.901618" lon="-0.665524">
        <ele>74.101877</ele>
        <time>2020-04-05T09:18:53.000Z</time>
      </trkpt>
      <trkpt lat="52.901939" lon="-0.665612">
        <ele>74.708519</ele>
        <time>2020-04-05T09:18:57.000Z</time>
      </trkpt>
      <trkpt lat="52.902031" lon="-0.665608">
        <ele>74.867035</ele>
        <time>2020-04-05T09:18:58.000Z</time>
      </trkpt>
      <trkpt lat="52.902106" lon="-0.665618">
        <ele>74.97759</ele>
        <time>2020-04-05T09:18:59.000Z</time>
      </trkpt>
      <trkpt lat="52.902189" lon="-0.665594">
        <ele>75.120342</ele>
        <time>2020-04-05T09:19:00.000Z</time>
      </trkpt>
      <trkpt lat="52.902274" lon="-0.665589">
        <ele>75.241415</ele>
        <time>2020-04-05T09:19:01.000Z</time>
      </trkpt>
      <trkpt lat="52.902356" lon="-0.66555">
        <ele>75.369423</ele>
        <time>2020-04-05T09:19:02.000Z</time>
      </trkpt>
      <trkpt lat="52.90259" lon="-0.665424">
        <ele>75.747175</ele>
        <time>2020-04-05T09:19:05.000Z</time>
      </trkpt>
      <trkpt lat="52.902941" lon="-0.665226">
        <ele>76.331446</ele>
        <time>2020-04-05T09:19:09.000Z</time>
      </trkpt>
      <trkpt lat="52.903128" lon="-0.665113">
        <ele>76.639399</ele>
        <time>2020-04-05T09:19:11.000Z</time>
      </trkpt>
      <trkpt lat="52.90334" lon="-0.665">
        <ele>76.983585</ele>
        <time>2020-04-05T09:19:13.000Z</time>
      </trkpt>
      <trkpt lat="52.903375" lon="-0.665005">
        <ele>77.029324</ele>
        <time>2020-04-05T09:19:13.000Z</time>
      </trkpt>
      <trkpt lat="52.903494" lon="-0.664961">
        <ele>77.231343</ele>
        <time>2020-04-05T09:19:14.000Z</time>
      </trkpt>
      <trkpt lat="52.903542" lon="-0.665105">
        <ele>77.373505</ele>
        <time>2020-04-05T09:19:15.000Z</time>
      </trkpt>
      <trkpt lat="52.90357" lon="-0.665269">
        <ele>77.539572</ele>
        <time>2020-04-05T09:19:16.000Z</time>
      </trkpt>
      <trkpt lat="52.903634" lon="-0.665583">
        <ele>77.841706</ele>
        <time>2020-04-05T09:19:18.000Z</time>
      </trkpt>
      <trkpt lat="52.903726" lon="-0.665925">
        <ele>78.19761</ele>
        <time>2020-04-05T09:19:21.000Z</time>
      </trkpt>
      <trkpt lat="52.903817" lon="-0.666197">
        <ele>78.485062</ele>
        <time>2020-04-05T09:19:23.000Z</time>
      </trkpt>
      <trkpt lat="52.903883" lon="-0.666456">
        <ele>78.741638</ele>
        <time>2020-04-05T09:19:25.000Z</time>
      </trkpt>
      <trkpt lat="52.904267" lon="-0.667202">
        <ele>79.656886</ele>
        <time>2020-04-05T09:19:32.000Z</time>
      </trkpt>
      <trkpt lat="52.904648" lon="-0.667719">
        <ele>80.439047</ele>
        <time>2020-04-05T09:19:37.000Z</time>
      </trkpt>
      <trkpt lat="52.904738" lon="-0.667808">
        <ele>80.561462</ele>
        <time>2020-04-05T09:19:38.000Z</time>
      </trkpt>
      <trkpt lat="52.904888" lon="-0.66795">
        <ele>80.767466</ele>
        <time>2020-04-05T09:19:40.000Z</time>
      </trkpt>
      <trkpt lat="52.905058" lon="-0.668087">
        <ele>80.990404</ele>
        <time>2020-04-05T09:19:42.000Z</time>
      </trkpt>
      <trkpt lat="52.905239" lon="-0.668219">
        <ele>81.238867</ele>
        <time>2020-04-05T09:19:44.000Z</time>
      </trkpt>
      <trkpt lat="52.905539" lon="-0.668371">
        <ele>81.607092</ele>
        <time>2020-04-05T09:19:47.000Z</time>
      </trkpt>
      <trkpt lat="52.905808" lon="-0.668476">
        <ele>81.939325</ele>
        <time>2020-04-05T09:19:50.000Z</time>
      </trkpt>
      <trkpt lat="52.906046" lon="-0.668537">
        <ele>82.215341</ele>
        <time>2020-04-05T09:19:53.000Z</time>
      </trkpt>
      <trkpt lat="52.906279" lon="-0.668547">
        <ele>82.50536</ele>
        <time>2020-04-05T09:19:56.000Z</time>
      </trkpt>
      <trkpt lat="52.906598" lon="-0.668566">
        <ele>82.7347168229</ele>
        <time>2020-04-05T09:20:00.000Z</time>
      </trkpt>
      <trkpt lat="52.906672" lon="-0.668557">
        <ele>82.7880304094</ele>
        <time>2020-04-05T09:20:01.000Z</time>
      </trkpt>
      <trkpt lat="52.906759" lon="-0.668538">
        <ele>82.8510818671</ele>
        <time>2020-04-05T09:20:02.000Z</time>
      </trkpt>
      <trkpt lat="52.906763" lon="-0.668196">
        <ele>82.999315932</ele>
        <time>2020-04-05T09:20:04.000Z</time>
      </trkpt>
      <trkpt lat="52.906771" lon="-0.668048">
        <ele>83.0637090147</ele>
        <time>2020-04-05T09:20:05.000Z</time>
      </trkpt>
      <trkpt lat="52.906768" lon="-0.667808">
        <ele>83.1677356803</ele>
        <time>2020-04-05T09:20:07.000Z</time>
      </trkpt>
      <trkpt lat="52.906778" lon="-0.667279">
        <ele>83.3970911165</ele>
        <time>2020-04-05T09:20:11.000Z</time>
      </trkpt>
      <trkpt lat="52.906801" lon="-0.66668">
        <ele>83.6571940054</ele>
        <time>2020-04-05T09:20:15.000Z</time>
      </trkpt>
      <trkpt lat="52.906825" lon="-0.666481">
        <ele>83.7451381185</ele>
        <time>2020-04-05T09:20:16.000Z</time>
      </trkpt>
    </trkseg>
  </trk>
</gpx>

<!--
Performance optimized by W3 Total Cache. Learn more: https://www.boldgrid.com/w3-total-cache/?utm_source=w3tc&utm_medium=footer_comment&utm_campaign=free_plugin

Page Caching using Disk: Enhanced{w3tc_pagecache_reject_reason} 

Served from: www.aquabike.world @ 2026-05-10 20:28:55 by W3 Total Cache
-->